Map

Track Data

SID SEASON NUMBER BASIN SUBBASIN NAME ISO_TIME NATURE LAT LON WMO_WIND WMO_PRES WMO_AGENCY TRACK_TYPE DIST2LAND LANDFALL IFLAG USA_AGENCY USA_ATCF_ID USA_LAT USA_LON USA_RECORD USA_STATUS USA_WIND USA_PRES USA_SSHS USA_R34_NE USA_R34_SE USA_R34_SW USA_R34_NW USA_R50_NE USA_R50_SE USA_R50_SW USA_R50_NW USA_R64_NE USA_R64_SE USA_R64_SW USA_R64_NW USA_POCI USA_ROCI USA_RMW USA_EYE TOKYO_LAT TOKYO_LON TOKYO_GRADE TOKYO_WIND TOKYO_PRES TOKYO_R50_DIR TOKYO_R50_LONG TOKYO_R50_SHORT TOKYO_R30_DIR TOKYO_R30_LONG TOKYO_R30_SHORT TOKYO_LAND CMA_LAT CMA_LON CMA_CAT CMA_WIND CMA_PRES HKO_LAT HKO_LON HKO_CAT HKO_WIND HKO_PRES NEWDELHI_LAT NEWDELHI_LON NEWDELHI_GRADE NEWDELHI_WIND NEWDELHI_PRES NEWDELHI_CI NEWDELHI_DP NEWDELHI_POCI REUNION_LAT REUNION_LON REUNION_TYPE REUNION_WIND REUNION_PRES REUNION_TNUM REUNION_CI REUNION_RMW REUNION_R34_NE REUNION_R34_SE REUNION_R34_SW REUNION_R34_NW REUNION_R50_NE REUNION_R50_SE REUNION_R50_SW REUNION_R50_NW REUNION_R64_NE REUNION_R64_SE REUNION_R64_SW REUNION_R64_NW BOM_LAT BOM_LON BOM_TYPE BOM_WIND BOM_PRES BOM_TNUM BOM_CI BOM_RMW BOM_R34_NE BOM_R34_SE BOM_R34_SW BOM_R34_NW BOM_R50_NE BOM_R50_SE BOM_R50_SW BOM_R50_NW BOM_R64_NE BOM_R64_SE BOM_R64_SW BOM_R64_NW BOM_ROCI BOM_POCI BOM_EYE BOM_POS_METHOD BOM_PRES_METHOD NADI_LAT NADI_LON NADI_CAT NADI_WIND NADI_PRES WELLINGTON_LAT WELLINGTON_LON WELLINGTON_WIND WELLINGTON_PRES DS824_LAT DS824_LON DS824_STAGE DS824_WIND DS824_PRES TD9636_LAT TD9636_LON TD9636_STAGE TD9636_WIND TD9636_PRES TD9635_LAT TD9635_LON TD9635_WIND TD9635_PRES TD9635_ROCI NEUMANN_LAT NEUMANN_LON NEUMANN_CLASS NEUMANN_WIND NEUMANN_PRES MLC_LAT MLC_LON MLC_CLASS MLC_WIND MLC_PRES USA_GUST BOM_GUST BOM_GUST_PER REUNION_GUST REUNION_GUST_PER USA_SEAHGT USA_SEARAD_NE USA_SEARAD_SE USA_SEARAD_SW USA_SEARAD_NW STORM_SPEED STORM_DIR
1960350S08131 1961 98 SI WA NOT_NAMED 1960-12-14 23:00:00 NR -7.90000 130.900 main 22 22 __________O___ -1 -7.90000 130.900 7 10 0
1960350S08131 1961 98 SI WA NOT_NAMED 1960-12-14 23:30:00 NR -7.98038 130.885 bom main 22 22 ______O___P___ -1 -8.10000 130.900 -7.92056 130.878 7 6 191
1960350S08131 1961 98 SI WA NOT_NAMED 1960-12-15 00:00:00 TS -7.99529 130.878 main 22 22 O_____P__OP___ jtwc_sh SH061961 -7.90000 130.900 -1 -8.11946 130.878 -8.10000 130.900 TC -7.94113 130.856 7 4 224
1960350S08131 1961 98 SI WA NOT_NAMED 1960-12-15 03:00:00 TS -8.12707 130.741 main 45 45 P_____P__PP___ SH061961 -8.06252 130.740 -1 -8.23638 130.745 -8.21686 130.767 TC -8.06474 130.725 7 4 224
1960350S08131 1961 98 SI WA NOT_NAMED 1960-12-15 06:00:00 TS -8.25982 130.619 main 64 64 O_____P__PP_O_ jtwc_sh SH061961 -8.20000 130.600 -1 -8.35419 130.612 -8.33446 130.634 TC -8.18914 130.598 7 -8.30000 130.800 TC 60 980 3 223
1960350S08131 1961 98 SI WA NOT_NAMED 1960-12-15 09:00:00 TS -8.37700 130.508 main 79 79 P_____P__PP_P_ SH061961 -8.29999 130.492 -1 -8.47367 130.478 -8.45360 130.500 TC -8.31499 130.477 7 -8.46250 130.710 TC 62 978 3 222
1960350S08131 1961 98 SI WA NOT_NAMED 1960-12-15 11:00:00 TS -8.45825 130.442 main 95 95 P_____P__PO_P_ SH061961 -8.36358 130.431 -1 -8.55463 130.388 -8.53428 130.410 TC -8.40000 130.400 7 -8.55849 130.640 TC 64 977 3 218
1960350S08131 1961 98 SI WA NOT_NAMED 1960-12-15 12:00:00 TS -8.50226 130.412 main 95 95 O_____P__PP_O_ jtwc_sh SH061961 -8.40000 130.400 -1 -8.59560 130.342 -8.57507 130.365 TC -8.44289 130.363 7 -8.60000 130.600 TC 65 977 3 220
1960350S08131 1961 98 SI WA NOT_NAMED 1960-12-15 15:00:00 TS -8.63208 130.291 main 110 110 P_____P__PP_P_ SH061961 -8.55000 130.300 -1 -8.72078 130.205 -8.69966 130.228 TC -8.57208 130.259 7 -8.70000 130.457 TC 67 974 4 223
1960350S08131 1961 98 SI WA NOT_NAMED 1960-12-15 18:00:00 TS -8.76296 130.169 main 133 133 O_____P__PP_O_ jtwc_sh SH061961 -8.70000 130.200 -1 -8.85000 130.065 -8.82815 130.088 TC -8.69961 130.160 7 -8.80000 130.300 TC 70 972 4 223
1960350S08131 1961 98 SI WA NOT_NAMED 1960-12-15 21:00:00 TS -8.88879 130.046 main 157 157 P_____P__PP_P_ SH061961 -8.80750 130.100 -1 -8.98404 129.922 -8.96133 129.946 TC -8.82236 130.064 7 -8.95000 130.143 TC 72 971 3 224
1960350S08131 1961 98 SI WA NOT_NAMED 1960-12-15 23:00:00 TS -8.97021 129.964 main 164 164 P_____P__PO_P_ SH061961 -8.86929 130.033 -1 -9.07647 129.825 -9.05312 129.849 TC -8.90000 130.000 7 -9.05309 130.044 TC 74 971 3 225
1960350S08131 1961 98 SI WA NOT_NAMED 1960-12-15 23:30:00 TS -8.99020 129.944 969 bom main 173 173 P_____O__PP_P_ SH061961 -8.88456 130.017 -1 -9.10000 129.800 969 -9.07647 129.825 TC -8.91847 129.983 7 -9.07712 130.022 TC 74 971 3 225
1960350S08131 1961 98 SI WA NOT_NAMED 1960-12-16 00:00:00 TS -9.01006 129.924 main 173 173 O_____P__OP_O_ jtwc_sh SH061961 -8.90000 130.000 -1 -9.12370 129.775 -9.10000 129.800 TC 75 969 -8.93668 129.967 7 -9.10000 130.000 TC 75 971 3 226
1960350S08131 1961 98 SI WA NOT_NAMED 1960-12-16 03:00:00 TS -9.12565 129.807 main 188 188 P_____P__PP_P_ SH061961 -9.00000 129.900 -1 -9.26852 129.626 -9.24416 129.651 TC -9.04122 129.867 7 -9.19998 129.900 TC 75 970 3 225
1960350S08131 1961 98 SI WA NOT_NAMED 1960-12-16 06:00:00 TS -9.24094 129.691 main 204 204 O_____P__PP_O_ jtwc_sh SH061961 -9.10000 129.800 -1 -9.41505 129.478 -9.39068 129.502 TC -9.13994 129.767 7 -9.30000 129.800 TC 75 969 3 224
1960350S08131 1961 98 SI WA NOT_NAMED 1960-12-16 09:00:00 TS -9.36349 129.570 main 227 227 P_____P__PP_P_ SH061961 -9.19999 129.707 -1 -9.55935 129.333 -9.53562 129.357 TC -9.23595 129.667 7 -9.45001 129.650 TC 75 969 3 225
1960350S08131 1961 98 SI WA NOT_NAMED 1960-12-16 11:00:00 TS -9.44471 129.488 main 235 226 P_____P__PO_P_ SH061961 -9.26666 129.639 -1 -9.65239 129.240 -9.62945 129.263 TC -9.30000 129.600 7 -9.55309 129.547 TC 75 969 3 225
1960350S08131 1961 98 SI WA NOT_NAMED 1960-12-16 12:00:00 TS -9.48474 129.446 main 230 219 O_____P__PP_O_ jtwc_sh SH061961 -9.30000 129.600 -1 -9.69753 129.196 -9.67509 129.218 TC -9.33580 129.563 7 -9.60000 129.500 TC 75 969 3 229
1960350S08131 1961 98 SI WA NOT_NAMED 1960-12-16 15:00:00 TS -9.59584 129.316 main 224 219 P_____P__PP_P_ SH061961 -9.40002 129.443 -1 -9.82566 129.069 -9.80517 129.089 TC -9.44421 129.450 7 -9.69998 129.400 TC 75 969 3 229
1960350S08131 1961 98 SI WA NOT_NAMED 1960-12-16 18:00:00 TS -9.70184 129.196 main 219 215 O_____P__PP_O_ jtwc_sh SH061961 -9.50000 129.300 -1 -9.93984 128.957 -9.92194 128.974 TC -9.54928 129.343 7 -9.80000 129.300 TC 75 969 3 225
1960350S08131 1961 98 SI WA NOT_NAMED 1960-12-16 21:00:00 TS -9.81124 129.099 main 215 206 P_____P__PP_P_ SH061961 -9.59999 129.235 -1 -10.0362 128.862 -10.0215 128.877 TC -9.64476 129.250 7 -9.96502 129.135 TC 75 969 3 220
1960350S08131 1961 98 SI WA NOT_NAMED 1960-12-16 23:00:00 TS -9.87714 129.049 main 213 213 P_____P__PO_P_ SH061961 -9.66666 129.211 -1 -10.0886 128.811 -10.0764 128.823 TC -9.70000 129.200 7 -10.0645 129.036 TC 75 969 2 214
1960350S08131 1961 98 SI WA NOT_NAMED 1960-12-16 23:30:00 TS -9.89193 129.038 969 bom main 213 213 P_____O__PP_P_ SH061961 -9.68333 129.206 -1 -10.1000 128.800 969 -10.0886 128.811 TC -9.71253 129.190 7 -10.0838 129.016 TC 75 969 2 224
1960350S08131 1961 98 SI WA NOT_NAMED 1960-12-17 00:00:00 TS -9.90566 129.029 main 213 204 O_____P__OP_O_ jtwc_sh SH061961 -9.70000 129.200 -1 -10.1094 128.791 -10.1000 128.800 TC 75 969 -9.72459 129.182 7 -10.1000 129.000 TC 75 969 2 213
1960350S08131 1961 98 SI WA NOT_NAMED 1960-12-17 03:00:00 TS -9.97313 128.984 main 204 204 P_____P__PP_P_ SH061961 -9.81500 129.143 -1 -10.1520 128.748 -10.1464 128.753 TC -9.78788 129.143 7 -10.1225 128.977 TC 75 969 1 210
1960350S08131 1961 98 SI WA NOT_NAMED 1960-12-17 06:00:00 TS -10.0140 128.963 main 204 204 O_____P__PP_O_ jtwc_sh SH061961 -9.90000 129.100 -1 -10.1742 128.725 -10.1718 128.728 TC -9.83785 129.122 7 -10.1000 129.000 TC 75 969 1 201
1960350S08131 1961 98 SI WA NOT_NAMED 1960-12-17 09:00:00 TS -10.0254 128.958 main 204 204 P_____P__PP_P_ SH061961 -9.90750 129.100 -1 -10.1799 128.720 -10.1799 128.720 TC -9.87761 129.109 7 -10.1000 129.000 TC 75 969 0 0
1960350S08131 1961 98 SI WA NOT_NAMED 1960-12-17 11:00:00 TS -10.0256 128.959 main 204 204 P_____P__PO_P_ SH061961 -9.89954 129.103 -1 -10.1765 128.723 -10.1778 128.722 TC -9.90000 129.100 7 -10.1000 129.000 TC 75 969 0 0
1960350S08131 1961 98 SI WA NOT_NAMED 1960-12-17 12:00:00 TS -10.0266 128.957 main 204 204 O_____P__PP_O_ jtwc_sh SH061961 -9.90000 129.100 -1 -10.1730 128.727 -10.1749 128.725 TC -9.91168 129.093 7 -10.1000 129.000 TC 75 969 0 0
1960350S08131 1961 98 SI WA NOT_NAMED 1960-12-17 15:00:00 TS -10.0432 128.942 main 211 203 P_____P__PP_P_ SH061961 -9.95000 129.050 -1 -10.1574 128.742 -10.1604 128.739 TC -9.94123 129.072 7 -10.1000 129.000 TC 75 969 0 237
1960350S08131 1961 98 SI WA NOT_NAMED 1960-12-17 18:00:00 TS -10.0571 128.929 main 203 203 O_____P__PP_O_ jtwc_sh SH061961 -10.0000 129.000 -1 -10.1370 128.763 -10.1406 128.759 TC -9.96494 129.050 7 -10.1000 129.000 TC 75 969 0 0
1960350S08131 1961 98 SI WA NOT_NAMED 1960-12-17 21:00:00 TS -10.0535 128.931 main 203 203 P_____P__PP_P_ SH061961 -10.0000 129.000 -1 -10.1157 128.784 -10.1191 128.781 TC -9.98595 129.022 7 -10.1000 129.000 TC 75 969 0 0
1960350S08131 1961 98 SI WA NOT_NAMED 1960-12-17 23:00:00 TS -10.0504 128.933 main 203 203 P_____P__PO_P_ SH061961 -9.99691 129.003 -1 -10.1029 128.797 -10.1059 128.794 TC -10.0000 129.000 7 -10.1000 129.000 TC 75 969 0 0
1960350S08131 1961 98 SI WA NOT_NAMED 1960-12-17 23:30:00 TS -10.0505 128.932 969 bom main 203 203 P_____O__PP_P_ SH061961 -9.99788 129.002 -1 -10.1000 128.800 969 -10.1029 128.797 TC -10.0042 128.993 7 -10.1000 129.000 TC 75 969 0 0
1960350S08131 1961 98 SI WA NOT_NAMED 1960-12-18 00:00:00 TS -10.0509 128.931 main 203 203 O_____P__OP_O_ jtwc_sh SH061961 -10.0000 129.000 -1 -10.0968 128.803 -10.1000 128.800 TC 75 969 -10.0083 128.985 7 -10.1000 129.000 TC 75 969 0 0
1960350S08131 1961 98 SI WA NOT_NAMED 1960-12-18 03:00:00 TS -10.0645 128.915 main 203 203 P_____P__PP_P_ SH061961 -10.0500 128.958 -1 -10.0750 128.823 -10.0789 128.819 TC -10.0333 128.936 7 -10.1000 129.000 TC 75 969 0 228
1960350S08131 1961 98 SI WA NOT_NAMED 1960-12-18 06:00:00 TS -10.0775 128.894 main 203 203 O_____P__PP_O_ jtwc_sh SH061961 -10.1000 128.900 -1 -10.0514 128.844 -10.0553 128.840 TC -10.0583 128.882 7 -10.1000 129.000 TC 75 969 0 255
1960350S08131 1961 98 SI WA NOT_NAMED 1960-12-18 09:00:00 TS -10.0745 128.873 main 203 203 P_____P__PP_P_ SH061961 -10.1000 128.842 -1 -10.0301 128.863 -10.0333 128.860 TC -10.0833 128.830 7 -10.1000 129.000 TC 75 969 0 277
1960350S08131 1961 98 SI WA NOT_NAMED 1960-12-18 11:00:00 TS -10.0725 128.861 main 203 203 P_____P__PO_P_ SH061961 -10.0969 128.811 -1 -10.0194 128.873 -10.0218 128.871 TC -10.1000 128.800 7 -10.1000 129.000 TC 75 969 0 0
1960350S08131 1961 98 SI WA NOT_NAMED 1960-12-18 12:00:00 TS -10.0733 128.857 main 203 203 O_____P__PP_O_ jtwc_sh SH061961 -10.1000 128.800 -1 -10.0156 128.876 -10.0174 128.875 TC -10.1071 128.792 7 -10.1000 129.000 TC 75 969 0 0
1960350S08131 1961 98 SI WA NOT_NAMED 1960-12-18 15:00:00 TS -10.0920 128.856 main 203 203 P_____P__PP_P_ SH061961 -10.1500 128.800 -1 -10.0122 128.879 -10.0118 128.880 TC -10.1279 128.775 7 -10.1000 129.000 TC 75 969 0 0
1960350S08131 1961 98 SI WA NOT_NAMED 1960-12-18 18:00:00 TS -10.1159 128.850 main 211 211 O_____P__PP_O_ jtwc_sh SH061961 -10.2000 128.800 -1 -10.0241 128.869 -10.0208 128.872 TC -10.1503 128.759 7 -10.1000 129.000 TC 75 969 0 232
1960350S08131 1961 98 SI WA NOT_NAMED 1960-12-18 21:00:00 TS -10.1266 128.827 main 211 211 P_____P__PP_P_ SH061961 -10.2000 128.765 -1 -10.0556 128.840 -10.0488 128.846 TC -10.1776 128.731 7 -10.0775 129.015 TC 75 969 1 243
1960350S08131 1961 98 SI WA NOT_NAMED 1960-12-18 23:00:00 TS -10.1411 128.798 main 211 211 P_____P__PO_P_ SH061961 -10.1969 128.725 -1 -10.0897 128.809 -10.0801 128.818 TC -10.2000 128.700 7 -10.0829 129.011 TC 75 969 1 239
1960350S08131 1961 98 SI WA NOT_NAMED 1960-12-18 23:30:00 TS -10.1467 128.788 969 bom main 211 203 P_____O__PP_P_ SH061961 -10.1979 128.713 -1 -10.1000 128.800 969 -10.0897 128.809 TC -10.2048 128.689 7 -10.0899 129.007 TC 75 969 1 0
1960350S08131 1961 98 SI WA NOT_NAMED 1960-12-19 00:00:00 TS -10.1534 128.779 main 203 203 O_____P__OP_O_ jtwc_sh SH061961 -10.2000 128.700 -1 -10.1109 128.796 -10.1000 128.800 TC 75 969 -10.2096 128.677 7 -10.1000 129.000 TC 75 969 2 228
1960350S08131 1961 98 SI WA NOT_NAMED 1960-12-19 03:00:00 TS -10.2219 128.708 main 211 203 P_____P__PP_P_ SH061961 -10.2425 128.608 -1 -10.1894 128.762 -10.1797 128.753 TC -10.2425 128.590 7 -10.2350 128.930 TC 75 969 2 227
1960350S08131 1961 98 SI WA NOT_NAMED 1960-12-19 06:00:00 TS -10.3096 128.615 main 211 205 O_____P__PP_O_ jtwc_sh SH061961 -10.3000 128.500 -1 -10.2894 128.713 -10.2819 128.689 TC -10.2862 128.486 7 -10.4000 128.800 TC 75 969 3 230
1960350S08131 1961 98 SI WA NOT_NAMED 1960-12-19 09:00:00 TS -10.3907 128.504 main 213 213 P_____P__PP_P_ SH061961 -10.3425 128.400 -1 -10.4090 128.641 -10.4034 128.605 TC -10.3469 128.375 7 -10.5000 128.600 TC 75 969 3 233
1960350S08131 1961 98 SI WA NOT_NAMED 1960-12-19 11:00:00 TS -10.4519 128.424 main 216 216 P_____P__PO_P_ SH061961 -10.3776 128.333 -1 -10.4986 128.578 -10.4938 128.537 TC -10.4000 128.300 7 -10.5636 128.460 TC 75 969 3 230
1960350S08131 1961 98 SI WA NOT_NAMED 1960-12-19 12:00:00 TS -10.4853 128.387 main 216 216 O_____P__PP_O_ jtwc_sh SH061961 -10.4000 128.300 -1 -10.5461 128.542 -10.5415 128.499 TC -10.4242 128.283 7 -10.6000 128.400 TC 75 969 3 223
1960350S08131 1961 98 SI WA NOT_NAMED 1960-12-19 15:00:00 TS -10.5999 128.284 main 220 220 P_____P__PP_P_ SH061961 -10.4775 128.200 -1 -10.6989 128.409 -10.6932 128.368 TC -10.5101 128.237 7 -10.7425 128.292 TC 75 969 3 220
1960350S08131 1961 98 SI WA NOT_NAMED 1960-12-19 18:00:00 TS -10.7408 128.169 main 225 221 O_____P__PP_O_ jtwc_sh SH061961 -10.6000 128.100 -1 -10.8655 128.237 -10.8554 128.210 TC -10.6236 128.170 7 -10.9000 128.200 TC 75 969 4 218
1960350S08131 1961 98 SI WA NOT_NAMED 1960-12-19 21:00:00 TS -10.9068 128.044 main 238 235 P_____P__PP_P_ SH061961 -10.7774 128.045 -1 -11.0438 128.020 -11.0254 128.021 TC -10.7743 128.041 7 -11.0424 128.095 TC 75 969 5 220
1960350S08131 1961 98 SI WA NOT_NAMED 1960-12-19 23:00:00 TS -11.0284 127.925 main 246 246 P_____P__PO_P_ SH061961 -10.9223 127.968 -1 -11.1683 127.847 -11.1414 127.878 TC -10.9000 127.900 7 -11.1442 127.981 TC 75 969 5 225
1960350S08131 1961 98 SI WA NOT_NAMED 1960-12-19 23:30:00 TS -11.0572 127.889 969 bom main 244 244 P_____O__PP_P_ SH061961 -10.9608 127.937 -1 -11.2000 127.800 969 -11.1707 127.839 TC -10.9362 127.856 7 -11.1716 127.943 TC 75 969 6 233
1960350S08131 1961 98 SI WA NOT_NAMED 1960-12-20 00:00:00 TS -11.0867 127.849 main 254 253 O_____P__OP_O_ jtwc_sh SH061961 -11.0000 127.900 -1 -11.2314 127.749 -11.2000 127.800 TC 75 969 -10.9740 127.808 7 -11.2000 127.900 TC 75 969 8 236
1960350S08131 1961 98 SI WA NOT_NAMED 1960-12-20 03:00:00 TS -11.3044 127.511 main 279 257 P_____P__PP_P_ SH061961 -11.2350 127.567 -1 -11.4292 127.411 -11.3592 127.451 TC -11.2302 127.463 7 -11.3925 127.545 TC 75 969 9 239
1960350S08131 1961 98 SI WA NOT_NAMED 1960-12-20 06:00:00 TS -11.5516 127.071 main 246 225 O_____P__PP_O_ jtwc_sh SH061961 -11.5000 127.100 -1 -11.6401 127.020 -11.5243 127.042 TC -11.5179 127.034 7 -11.6000 127.100 TC 75 969 10 241
1960350S08131 1961 98 SI WA NOT_NAMED 1960-12-20 09:00:00 TS -11.8144 126.590 main 226 211 P_____P__PP_P_ SH061961 -11.8000 126.580 -1 -11.8598 126.587 -11.6946 126.582 TC -11.8123 126.546 7 -11.8000 126.657 TC 75 969 11 242
1960350S08131 1961 98 SI WA NOT_NAMED 1960-12-20 11:00:00 TS -11.9897 126.245 main 215 209 P_____P__PO_P_ SH061961 -12.0031 126.197 -1 -12.0089 126.279 -11.8105 126.252 TC -12.0000 126.200 7 -11.9333 126.353 TC 75 969 11 243
1960350S08131 1961 98 SI WA NOT_NAMED 1960-12-20 12:00:00 TS -12.0746 126.069 main 209 195 O_____P__PP_O_ jtwc_sh SH061961 -12.1000 126.000 -1 -12.0837 126.121 -11.8691 126.082 TC -12.0892 126.025 7 -12.0000 126.200 TC 75 969 12 245
1960350S08131 1961 98 SI WA NOT_NAMED 1960-12-20 15:00:00 TS -12.3158 125.525 main 201 194 P_____P__PP_P_ SH061961 -12.3650 125.385 -1 -12.3077 125.635 -12.0473 125.553 TC -12.3488 125.469 7 -12.1924 125.750 TC 75 969 12 246
1960350S08131 1961 98 SI WA NOT_NAMED 1960-12-20 18:00:00 TS -12.5428 124.987 main 205 196 O_____P__PP_O_ jtwc_sh SH061961 -12.6000 124.800 -1 -12.5274 125.139 -12.2284 125.005 TC -12.5866 124.894 7 -12.4000 125.300 TC 75 969 11 246
1960350S08131 1961 98 SI WA NOT_NAMED 1960-12-20 21:00:00 TS -12.7691 124.493 main 205 205 P_____P__PP_P_ SH061961 -12.8298 124.320 -1 -12.7386 124.642 -12.4117 124.450 TC -12.7898 124.340 7 -12.6575 124.843 TC 75 969 10 245
1960350S08131 1961 98 SI WA NOT_NAMED 1960-12-20 23:00:00 TS -12.9008 124.187 main 217 217 P_____P__PO_P_ SH061961 -12.9530 124.036 -1 -12.8727 124.317 -12.5350 124.081 TC -12.9000 124.000 7 -12.8254 124.544 TC 75 969 10 247
1960350S08131 1961 98 SI WA NOT_NAMED 1960-12-21 00:00:00 TS -12.9554 124.042 main 221 221 O_____P__PP_O_ jtwc_sh SH061961 -13.0000 123.900 -1 -12.9373 124.157 -12.5968 123.898 TC -12.9399 123.851 7 -12.9000 124.400 TC 75 969 9 251
1960350S08131 1961 98 SI WA NOT_NAMED 1960-12-21 01:00:00 TS -13.0004 123.897 969 bom main 227 227 P_____O__PP_P_ SH061961 -13.0338 123.758 -1 -13.0000 124.000 969 -12.6588 123.717 TC -12.9733 123.710 7 -12.9614 124.261 TC 75 969 9 257
1960350S08131 1961 98 SI WA NOT_NAMED 1960-12-21 03:00:00 TS -13.0554 123.605 main 240 240 P_____P__PP_P_ SH061961 -13.0724 123.485 -1 -13.0421 123.618 -12.7831 123.360 TC -13.0250 123.444 7 -13.0649 123.992 TC 75 969 8 261
1960350S08131 1961 98 SI WA NOT_NAMED 1960-12-21 06:00:00 TS -13.1126 123.182 main 273 273 O_____P__PP_O_ jtwc_sh SH061961 -13.1000 123.100 -1 -13.0807 123.031 -12.9702 122.847 TC -13.0821 123.078 7 -13.2000 123.600 TC 75 969 8 262
1960350S08131 1961 98 SI WA NOT_NAMED 1960-12-21 09:00:00 TS -13.1731 122.777 main 302 302 P_____P__PP_P_ SH061961 -13.1274 122.750 -1 -13.1105 122.454 -13.1580 122.369 TC -13.1426 122.731 7 -13.3574 123.200 TC 75 969 8 260
1960350S08131 1961 98 SI WA NOT_NAMED 1960-12-21 11:00:00 TS -13.2250 122.513 main 331 331 P_____P__PO_P_ SH061961 -13.1661 122.520 -1 -13.1370 122.091 -13.2833 122.076 TC -13.2000 122.500 7 -13.4557 122.933 TC 75 969 8 258
1960350S08131 1961 98 SI WA NOT_NAMED 1960-12-21 12:00:00 TS -13.2580 122.375 main 334 334 O_____P__PP_O_ jtwc_sh SH061961 -13.2000 122.400 -1 -13.1550 121.918 -13.3461 121.938 TC -13.2352 122.355 7 -13.5000 122.800 TC 75 969 9 253
1960350S08131 1961 98 SI WA NOT_NAMED 1960-12-21 15:00:00 TS -13.3903 121.953 main 357 353 P_____P__PP_P_ SH061961 -13.3775 122.000 -1 -13.2379 121.453 -13.5344 121.565 TC -13.3587 121.913 7 -13.5999 122.400 TC 75 969 9 249
1960350S08131 1961 98 SI WA NOT_NAMED 1960-12-21 18:00:00 TS -13.5604 121.557 main 353 353 O_____P__PP_O_ jtwc_sh SH061961 -13.6000 121.600 -1 -13.3832 121.089 -13.7229 121.260 TC -13.5186 121.498 7 -13.7000 122.000 TC 75 969 8 245
1960350S08131 1961 98 SI WA NOT_NAMED 1960-12-21 21:00:00 TS -13.7375 121.190 main 362 353 P_____P__PP_P_ SH061961 -13.7700 121.197 -1 -13.6150 120.856 -13.9114 121.035 TC -13.7274 121.159 7 -13.8051 121.540 TC 75 969 8 238
1960350S08131 1961 98 SI WA NOT_NAMED 1960-12-21 23:00:00 TS -13.8939 121.007 main 355 346 P_____P__PO_P_ SH061961 -13.9105 120.980 -1 -13.8294 120.788 -14.0372 120.934 TC -13.9000 121.000 7 -13.9189 121.288 TC 75 969 7 223
1960350S08131 1961 98 SI WA NOT_NAMED 1960-12-22 00:00:00 TS -13.9983 120.941 main 352 343 O_____P__OP_O_ jtwc_sh SH061961 -14.0000 120.900 -1 -13.9573 120.783 -14.1000 120.900 TC 75 969 -14.0090 120.934 7 -14.0000 121.200 TC 75 969 7 205
1960350S08131 1961 98 SI WA NOT_NAMED 1960-12-22 01:00:00 TS -14.1122 120.899 969 bom main 343 318 P_____O__PP_P_ SH061961 -14.1131 120.836 -1 -14.1000 120.800 969 4 -14.1628 120.877 TC -14.1274 120.881 7 -14.1073 121.141 TC 75 969 8 190
1960350S08131 1961 98 SI WA NOT_NAMED 1960-12-22 03:00:00 TS -14.3954 120.871 main 318 286 P_____P__PP_P_ SH061961 -14.3774 120.768 -1 -14.4674 120.904 -14.2885 120.863 TC -14.3848 120.815 7 -14.3698 121.103 TC 75 969 9 176
1960350S08131 1961 98 SI WA NOT_NAMED 1960-12-22 06:00:00 TS -14.8469 120.955 main 278 263 O_____P__PP_O_ jtwc_sh SH061961 -14.8000 120.800 -1 -15.0419 121.156 -14.4769 120.922 TC -14.7928 120.817 7 -14.8000 121.200 TC 75 970 9 167
1960350S08131 1961 98 SI WA NOT_NAMED 1960-12-22 07:30:00 TS -15.0583 121.031 bom main 255 239 P_____O__PP_P_ SH061961 -14.9984 120.852 -1 -15.3000 121.300 -14.5712 120.985 TC -14.9922 120.865 7 -15.0025 121.289 TC 73 970 9 159
1960350S08131 1961 98 SI WA NOT_NAMED 1960-12-22 09:00:00 TS -15.2470 121.114 main 239 216 P_____P__PP_P_ SH061961 -15.1875 120.940 -1 -15.4850 121.332 -14.6654 121.070 TC -15.1798 120.944 7 -15.1950 121.412 TC 72 971 8 153
1960350S08131 1961 98 SI WA NOT_NAMED 1960-12-22 11:00:00 TS -15.4600 121.248 main 209 201 P_____P__PO_P_ SH061961 -15.4088 121.103 -1 -15.6682 121.331 -14.7909 121.215 TC -15.4000 121.100 7 -15.4145 121.603 TC 70 971 7 147
1960350S08131 1961 98 SI WA NOT_NAMED 1960-12-22 12:00:00 TS -15.5441 121.320 main 201 170 O_____P__PP_O_ jtwc_sh SH061961 -15.5000 121.200 -1 -15.7366 121.322 -14.8537 121.301 TC -15.4837 121.177 7 -15.5000 121.700 TC 70 972 6 131
1960350S08131 1961 98 SI WA NOT_NAMED 1960-12-22 15:00:00 TS -15.7124 121.545 main 170 139 P_____P__PP_P_ SH061961 -15.6872 121.483 -1 -15.8710 121.312 -15.0416 121.608 TC -15.6867 121.495 7 -15.6300 121.950 TC 70 972 6 117
1960350S08131 1961 98 SI WA NOT_NAMED 1960-12-22 18:00:00 TS -15.8140 121.871 main 131 92 O_____P__PP_O_ jtwc_sh SH061961 -15.8000 121.900 -1 -15.9376 121.420 -15.2289 121.987 TC -15.8325 121.934 7 -15.7000 122.200 TC 70 973 8 105
1960350S08131 1961 98 SI WA NOT_NAMED 1960-12-22 21:00:00 TS -15.9164 122.322 main 92 59 P_____P__PP_P_ SH061961 -15.9075 122.490 -1 -15.9850 121.765 -15.4154 122.431 TC -15.9401 122.481 7 -15.8421 122.383 TC 70 974 10 102
1960350S08131 1961 98 SI WA NOT_NAMED 1960-12-22 23:00:00 TS -15.9830 122.713 main 59 55 P_____P__PO_P_ SH061961 -15.9692 122.956 -1 -16.0295 122.186 -15.5390 122.760 TC -16.0000 122.900 7 -15.9471 122.565 TC 70 974 12 100
1960350S08131 1961 98 SI WA NOT_NAMED 1960-12-23 00:00:00 TS -16.0182 122.937 main 55 55 O_____P__PP_O_ jtwc_sh SH061961 -16.0000 123.200 -1 -16.0607 122.466 -15.6006 122.933 TC -16.0304 123.116 7 -16.0000 122.700 TC 70 975 14 99
1960350S08131 1961 98 SI WA NOT_NAMED 1960-12-23 01:00:00 TS -16.0563 123.180 975 bom main 48 11 P_____O__PP_P_ SH061961 -16.0359 123.436 -1 -16.1000 122.800 975 -15.6620 123.113 TC -16.0571 123.346 7 -16.0528 122.882 TC 69 975 15 99
1960350S08131 1961 98 SI WA NOT_NAMED 1960-12-23 03:00:00 TS -16.1350 123.725 975 bom main 11 0 P_____O__PP_P_ SH061961 -16.1073 123.927 -1 -16.2000 123.600 975 -15.7841 123.488 TC -16.1028 123.837 7 -16.1578 123.332 TC 67 976 16 98
1960350S08131 1961 98 SI WA NOT_NAMED 1960-12-23 06:00:00 TS -16.2402 124.566 main 0 0 O_____P__PP_O_ jtwc_sh SH061961 -16.2000 124.700 -1 -16.3373 124.697 -15.9658 124.089 TC -16.1638 124.632 7 -16.3000 124.100 TC 65 977 16 96
1960350S08131 1961 98 SI WA NOT_NAMED 1960-12-23 09:00:00 TS -16.3146 125.374 main 0 0 P_____P__PP_P_ SH061961 -16.2349 125.500 -1 -16.4605 125.606 -16.1452 124.730 TC -16.2353 125.456 7 -16.4073 124.808 TC 57 980 15 96
1960350S08131 1961 98 SI WA NOT_NAMED 1960-12-23 11:00:00 TS -16.3687 125.893 main 0 0 P_____P__PO_P_ SH061961 -16.2687 126.037 -1 -16.5366 126.122 -16.2633 125.176 TC -16.3000 126.000 7 -16.4692 125.272 TC 52 982 15 98
1960350S08131 1961 98 SI WA NOT_NAMED 1960-12-23 12:00:00 TS -16.4140 126.127 main 0 0 O_____P__PP_O_ jtwc_sh SH061961 -16.3000 126.300 -1 -16.5733 126.356 -16.3220 125.404 TC -16.3398 126.266 7 -16.5000 125.500 TC 50 984 13 102
1960350S08131 1961 98 SI WA NOT_NAMED 1960-12-23 15:00:00 TS -16.5582 126.807 main 0 0 P_____P__PP_P_ SH061961 -16.4679 127.062 -1 -16.6785 126.977 -16.4960 126.104 TC -16.4869 127.040 7 -16.5997 126.150 TC 45 987 13 104
1960350S08131 1961 98 SI WA NOT_NAMED 1960-12-23 18:00:00 TS -16.7162 127.397 main 0 0 O_____P__PP_O_ jtwc_sh SH061961 -16.7000 127.800 -1 -16.7784 127.499 -16.6670 126.825 TC -16.6658 127.787 7 -16.7000 126.800 TC 40 990 11 105
1960350S08131 1961 98 SI WA NOT_NAMED 1960-12-23 21:00:00 TS -16.8476 127.923 main 0 0 ______P__PP_P_ SH061961 -1 -16.8747 127.952 -16.8350 127.559 TC -16.8638 128.517 7 -16.8006 127.487 TC 37 993 10 104
1960350S08131 1961 98 SI WA NOT_NAMED 1960-12-23 23:00:00 TS -16.9245 128.269 main 0 0 ______P__PO_P_ SH061961 -1 -16.9377 128.230 -16.9453 128.053 TC -17.0000 129.000 7 -16.8671 127.961 TC 35 995 8 107
1960350S08131 1961 98 SI WA NOT_NAMED 1960-12-24 00:00:00 TS -16.9594 128.308 main 0 0 ______P__O__O_ -1 -16.9689 128.366 -17.0000 128.300 TC 30 1000 7 -16.9000 128.200 TC 35 997 7 109
1960350S08131 1961 98 SI WA NOT_NAMED 1960-12-24 01:00:00 NR -17.0000 128.500 1000 bom main 0 ______O_______ -1 -17.0000 128.500 1000 TC 7 TC 11 102

About IBTrACS Database

This database is a web-friendly format of International Best Track Archive for Climate Stewardship (IBTrACS), a global best track data archive curated by NOAA dating back to 1842.

Updated: 2021-10-21